createdAt,value
2019-03-17T00:01:21.478Z,11.65
2019-03-17T00:04:11.255Z,11.67
2019-03-17T00:07:01.344Z,11.52
2019-03-17T00:09:51.203Z,11.45
2019-03-17T00:12:41.001Z,11.44
2019-03-17T00:15:30.882Z,11.43
2019-03-17T00:18:20.765Z,11.34
2019-03-17T00:21:10.524Z,11.26
2019-03-17T00:24:00.520Z,11.15
2019-03-17T00:26:50.589Z,11.11
2019-03-17T00:29:40.710Z,11.01
2019-03-17T00:32:30.513Z,10.92
2019-03-17T00:35:21.613Z,10.86
2019-03-17T00:38:11.754Z,10.78
2019-03-17T00:41:01.974Z,10.71
2019-03-17T00:43:51.821Z,10.61
2019-03-17T00:46:41.714Z,10.57
2019-03-17T00:49:31.777Z,10.49
2019-03-17T00:52:21.431Z,10.36
2019-03-17T00:55:12.422Z,10.27
2019-03-17T00:58:02.601Z,10.31
2019-03-17T01:00:52.711Z,10.26
2019-03-17T01:03:43.777Z,10.15
2019-03-17T01:06:33.709Z,10.09
2019-03-17T01:09:23.670Z,10.13
2019-03-17T01:12:13.514Z,10.15
2019-03-17T01:15:03.432Z,10.07
2019-03-17T01:17:53.094Z,10.07
2019-03-17T01:20:42.686Z,10.03
2019-03-17T01:23:32.467Z,10.05
2019-03-17T01:26:21.832Z,10.06
2019-03-17T01:29:11.350Z,10.07
2019-03-17T01:32:01.327Z,10.10
2019-03-17T01:34:51.336Z,10.11
2019-03-17T01:37:41.376Z,10.06
2019-03-17T01:40:30.980Z,10.04
2019-03-17T01:43:20.850Z,9.98
2019-03-17T01:46:10.926Z,10.00
2019-03-17T01:49:00.785Z,10.01
2019-03-17T01:51:51.072Z,10.05
2019-03-17T01:54:41.041Z,10.10
2019-03-17T01:57:30.530Z,10.17
2019-03-17T02:00:20.361Z,10.22
2019-03-17T02:03:10.504Z,10.17
2019-03-17T02:06:00.607Z,10.24
2019-03-17T02:08:50.762Z,10.29
2019-03-17T02:11:40.858Z,10.19
2019-03-17T02:14:30.867Z,10.23
2019-03-17T02:17:20.664Z,10.30
2019-03-17T02:20:11.377Z,10.35
2019-03-17T02:23:01.323Z,10.31
2019-03-17T02:25:51.475Z,10.33
2019-03-17T02:28:41.143Z,10.34
2019-03-17T02:31:31.551Z,10.31
2019-03-17T02:34:20.950Z,10.35
2019-03-17T02:37:11.096Z,10.46
2019-03-17T02:40:01.633Z,10.42
2019-03-17T02:42:50.983Z,10.45
2019-03-17T02:45:40.823Z,10.49
2019-03-17T02:48:30.986Z,10.52
2019-03-17T02:51:20.951Z,10.41
2019-03-17T02:54:10.704Z,10.45
2019-03-17T02:57:00.747Z,10.46
2019-03-17T02:59:50.605Z,10.40
2019-03-17T03:02:40.573Z,10.39
2019-03-17T03:05:30.375Z,10.36
2019-03-17T03:08:20.104Z,10.39
2019-03-17T03:11:09.600Z,10.39
2019-03-17T03:13:59.666Z,10.36
2019-03-17T03:16:49.484Z,10.40
2019-03-17T03:19:39.597Z,10.40
2019-03-17T03:22:29.482Z,10.41
2019-03-17T03:25:19.587Z,10.40
2019-03-17T03:28:09.219Z,10.30
2019-03-17T03:30:58.973Z,10.38
2019-03-17T03:33:49.093Z,10.34
2019-03-17T03:36:38.895Z,10.33
2019-03-17T03:39:28.833Z,10.33
2019-03-17T03:42:18.911Z,10.35
2019-03-17T03:45:09.407Z,10.38
2019-03-17T03:47:59.774Z,10.36
2019-03-17T03:50:49.957Z,10.35
2019-03-17T03:53:39.257Z,10.37
2019-03-17T03:56:28.973Z,10.41
2019-03-17T03:59:19.603Z,10.40
2019-03-17T04:02:09.400Z,10.40
2019-03-17T04:04:59.554Z,10.30
2019-03-17T04:07:49.471Z,10.32
2019-03-17T04:10:39.612Z,10.32
2019-03-17T04:13:29.436Z,10.36
2019-03-17T04:16:19.462Z,10.32
2019-03-17T04:19:09.220Z,10.30
2019-03-17T04:21:59.501Z,10.30
2019-03-17T04:24:48.963Z,10.27
2019-03-17T04:27:38.850Z,10.21
2019-03-17T04:30:28.868Z,10.20
2019-03-17T04:33:18.748Z,10.09
2019-03-17T04:36:09.430Z,10.16
2019-03-17T04:38:59.165Z,10.15
2019-03-17T04:41:49.196Z,10.20
2019-03-17T04:44:39.232Z,10.18
2019-03-17T04:47:29.067Z,10.21
2019-03-17T04:50:18.579Z,10.18
2019-03-17T04:53:08.307Z,10.26
2019-03-17T04:55:58.447Z,10.29
2019-03-17T04:58:49.810Z,10.25
2019-03-17T05:01:39.681Z,10.26
2019-03-17T05:04:29.566Z,10.22
2019-03-17T05:07:19.490Z,10.33
2019-03-17T05:10:09.767Z,10.34
2019-03-17T05:12:59.607Z,10.33
2019-03-17T05:15:49.165Z,10.34
2019-03-17T05:18:39.045Z,10.33
2019-03-17T05:21:29.404Z,10.37
2019-03-17T05:24:19.305Z,10.32
2019-03-17T05:27:09.277Z,10.33
2019-03-17T05:29:59.327Z,10.30
2019-03-17T05:32:49.149Z,10.16
2019-03-17T05:35:38.931Z,10.14
2019-03-17T05:38:28.881Z,10.11
2019-03-17T05:41:18.885Z,10.11
2019-03-17T05:44:09.322Z,10.01
2019-03-17T05:46:59.537Z,10.08
2019-03-17T05:49:49.353Z,10.09
2019-03-17T05:52:39.185Z,10.23
2019-03-17T05:55:28.662Z,10.24
2019-03-17T05:58:18.378Z,10.27
2019-03-17T06:01:09.142Z,10.35
2019-03-17T06:03:58.978Z,10.39
2019-03-17T06:06:49.135Z,10.44
2019-03-17T06:09:39.184Z,10.46
2019-03-17T06:12:29.239Z,10.46
2019-03-17T06:15:19.127Z,10.54
2019-03-17T06:18:09.479Z,10.69
2019-03-17T06:20:59.818Z,10.83
2019-03-17T06:23:49.792Z,10.97
2019-03-17T06:26:39.939Z,11.24
2019-03-17T06:29:29.648Z,11.40
2019-03-17T06:32:19.788Z,11.71
2019-03-17T06:35:10.062Z,12.05
2019-03-17T06:38:00.783Z,12.46
2019-03-17T06:40:52.160Z,12.87
2019-03-17T06:43:42.413Z,13.32
2019-03-17T06:46:32.180Z,13.69
2019-03-17T06:49:22.255Z,14.11
2019-03-17T06:52:12.048Z,14.65
2019-03-17T06:55:01.766Z,15.23
2019-03-17T06:57:51.815Z,15.65
2019-03-17T07:00:41.772Z,15.96
2019-03-17T07:03:31.468Z,16.27
2019-03-17T07:06:21.329Z,16.47
2019-03-17T07:09:11.303Z,16.58
2019-03-17T07:12:01.687Z,16.55
2019-03-17T07:14:51.718Z,16.64
2019-03-17T07:17:42.447Z,16.98
2019-03-17T07:20:32.434Z,17.45
2019-03-17T07:23:22.634Z,17.91
2019-03-17T07:26:14.630Z,18.33
2019-03-17T07:29:04.520Z,19.15
2019-03-17T07:31:54.590Z,19.59
2019-03-17T07:34:44.248Z,19.82
2019-03-17T07:37:33.951Z,19.80
2019-03-17T07:40:24.055Z,19.74
2019-03-17T07:43:14.925Z,19.61
2019-03-17T07:46:04.809Z,19.84
2019-03-17T07:48:54.192Z,20.32
2019-03-17T07:51:44.332Z,20.83
2019-03-17T07:54:35.156Z,21.02
2019-03-17T07:57:24.991Z,21.04
2019-03-17T08:00:15.244Z,21.21
2019-03-17T08:03:04.979Z,21.14
2019-03-17T08:05:55.056Z,21.02
2019-03-17T08:08:44.912Z,20.40
2019-03-17T08:11:34.728Z,19.82
2019-03-17T08:14:24.535Z,19.24
2019-03-17T08:17:14.546Z,18.70
2019-03-17T08:20:05.139Z,18.60
2019-03-17T08:22:54.932Z,18.56
2019-03-17T08:25:44.661Z,18.67
2019-03-17T08:28:34.403Z,19.12
2019-03-17T08:31:24.094Z,19.20
2019-03-17T08:34:13.613Z,19.67
2019-03-17T08:37:03.394Z,19.85
2019-03-17T08:39:53.374Z,19.73
2019-03-17T08:42:43.317Z,19.22
2019-03-17T08:45:33.933Z,18.91
2019-03-17T08:48:23.741Z,19.07
2019-03-17T08:51:13.736Z,19.26
2019-03-17T08:54:03.575Z,19.62
2019-03-17T08:56:53.795Z,19.57
2019-03-17T08:59:43.542Z,19.44
2019-03-17T09:02:33.445Z,19.22
2019-03-17T09:05:23.596Z,19.14
2019-03-17T09:08:13.357Z,18.85
2019-03-17T09:11:02.984Z,18.69
2019-03-17T09:13:52.515Z,18.45
2019-03-17T09:16:41.970Z,18.35
2019-03-17T09:19:31.781Z,18.26
2019-03-17T09:22:21.686Z,18.19
2019-03-17T09:25:11.909Z,18.14
2019-03-17T09:28:01.641Z,18.26
2019-03-17T09:30:51.463Z,18.45
2019-03-17T09:33:41.353Z,18.74
2019-03-17T09:36:32.505Z,18.98
2019-03-17T09:39:22.571Z,19.16
2019-03-17T09:42:12.321Z,19.08
2019-03-17T09:45:01.976Z,19.27
2019-03-17T09:47:51.643Z,19.41
2019-03-17T09:50:41.998Z,19.50
2019-03-17T09:53:31.927Z,19.81
2019-03-17T09:56:21.664Z,19.99
2019-03-17T09:59:11.192Z,20.12
2019-03-17T10:02:01.430Z,19.85
2019-03-17T10:04:51.414Z,19.61
2019-03-17T10:07:41.628Z,19.30
2019-03-17T10:10:31.484Z,18.97
2019-03-17T10:13:21.671Z,18.90
2019-03-17T10:16:11.853Z,18.71
2019-03-17T10:19:01.359Z,18.65
2019-03-17T10:21:51.419Z,18.65
2019-03-17T10:24:41.490Z,18.74
2019-03-17T10:27:30.835Z,18.93
2019-03-17T10:30:20.947Z,19.09
2019-03-17T10:33:10.987Z,18.88
2019-03-17T10:36:01.149Z,18.74
2019-03-17T10:38:51.211Z,18.64
2019-03-17T10:41:40.686Z,18.51
2019-03-17T10:44:31.673Z,18.34
2019-03-17T10:47:21.263Z,18.21
2019-03-17T10:50:13.856Z,18.15
2019-03-17T10:53:04.307Z,18.03
2019-03-17T10:55:54.129Z,18.01
2019-03-17T10:58:44.198Z,18.15
2019-03-17T11:01:34.177Z,18.20
2019-03-17T11:04:24.562Z,18.11
2019-03-17T11:07:14.709Z,19.03
2019-03-17T11:10:04.830Z,19.81
2019-03-17T11:12:54.786Z,20.06
2019-03-17T11:15:44.306Z,20.24
2019-03-17T11:18:35.717Z,20.18
2019-03-17T11:21:26.362Z,20.21
2019-03-17T11:24:16.058Z,20.40
2019-03-17T11:27:06.184Z,20.27
2019-03-17T11:29:56.439Z,19.98
2019-03-17T11:32:46.356Z,19.72
2019-03-17T11:35:35.769Z,19.49
2019-03-17T11:38:26.419Z,19.34
2019-03-17T11:41:15.998Z,19.04
2019-03-17T11:44:06.137Z,18.75
2019-03-17T11:46:56.162Z,18.62
2019-03-17T11:49:46.250Z,18.49
2019-03-17T11:52:36.714Z,18.42
2019-03-17T11:55:26.741Z,18.28
2019-03-17T11:58:16.061Z,18.21
2019-03-17T12:01:05.886Z,18.14
2019-03-17T12:03:56.182Z,18.79
2019-03-17T12:06:47.252Z,19.54
2019-03-17T12:09:49.306Z,19.97
2019-03-17T12:12:28.632Z,20.36
2019-03-17T12:15:18.538Z,20.44
2019-03-17T12:18:08.451Z,20.20
2019-03-17T12:20:58.162Z,20.05
2019-03-17T12:23:48.414Z,19.77
2019-03-17T12:26:37.822Z,19.51
2019-03-17T12:29:27.463Z,19.09
2019-03-17T12:32:17.450Z,18.87
2019-03-17T12:35:07.376Z,18.60
2019-03-17T12:37:57.383Z,18.30
2019-03-17T12:40:47.455Z,18.18
2019-03-17T12:43:37.435Z,18.06
2019-03-17T12:46:27.329Z,17.90
2019-03-17T12:49:16.776Z,17.77
2019-03-17T12:52:07.127Z,17.51
2019-03-17T12:54:57.218Z,17.40
2019-03-17T12:57:47.154Z,17.15
2019-03-17T13:00:37.054Z,17.04
2019-03-17T13:03:26.717Z,16.78
2019-03-17T13:06:16.836Z,16.68
2019-03-17T13:09:08.012Z,16.49
2019-03-17T13:11:57.815Z,16.43
2019-03-17T13:14:47.480Z,16.27
2019-03-17T13:17:37.236Z,16.19
2019-03-17T13:20:29.627Z,15.93
2019-03-17T13:23:18.038Z,15.88
2019-03-17T13:26:10.217Z,15.89
2019-03-17T13:28:59.521Z,15.81
2019-03-17T13:31:49.278Z,15.74
2019-03-17T13:34:40.156Z,15.57
2019-03-17T13:37:30.399Z,15.55
2019-03-17T13:40:28.901Z,15.48
2019-03-17T13:43:11.403Z,15.41
2019-03-17T13:46:01.489Z,15.28
2019-03-17T13:48:51.311Z,15.15
2019-03-17T13:51:41.349Z,15.05
2019-03-17T13:54:36.256Z,14.98
2019-03-17T13:57:26.860Z,14.90
2019-03-17T14:00:16.742Z,14.66
2019-03-17T14:03:06.756Z,14.51
2019-03-17T14:05:56.692Z,14.29
2019-03-17T14:08:46.357Z,13.98
2019-03-17T14:11:36.231Z,13.76
2019-03-17T14:14:25.423Z,13.47
2019-03-17T14:17:15.659Z,13.13
2019-03-17T14:20:08.767Z,12.91
2019-03-17T14:22:59.235Z,12.70
2019-03-17T14:25:49.123Z,12.35
2019-03-17T14:28:38.434Z,12.07
2019-03-17T14:31:27.991Z,11.81
2019-03-17T14:34:17.971Z,11.46
2019-03-17T14:37:07.607Z,11.20
2019-03-17T14:39:57.715Z,11.12
2019-03-17T14:42:47.729Z,10.87
2019-03-17T14:45:37.178Z,10.77
2019-03-17T14:48:27.474Z,10.63
2019-03-17T14:51:17.276Z,10.58
2019-03-17T14:54:07.323Z,10.54
2019-03-17T14:56:57.340Z,10.41
2019-03-17T14:59:47.100Z,10.35
2019-03-17T15:02:36.795Z,10.30
2019-03-17T15:05:26.405Z,10.31
2019-03-17T15:08:15.664Z,10.27
2019-03-17T15:11:06.389Z,10.31
2019-03-17T15:13:56.147Z,10.27
2019-03-17T15:16:46.065Z,10.27
2019-03-17T15:19:36.328Z,10.30
2019-03-17T15:22:26.370Z,10.34
2019-03-17T15:25:16.478Z,10.37
2019-03-17T15:28:06.963Z,10.46
2019-03-17T15:31:10.165Z,10.48
2019-03-17T15:33:47.667Z,10.47
2019-03-17T15:36:37.666Z,10.47
2019-03-17T15:39:27.235Z,10.50
2019-03-17T15:42:19.381Z,10.52
2019-03-17T15:45:10.587Z,10.51
2019-03-17T15:48:00.889Z,10.56
2019-03-17T15:50:50.857Z,10.58
2019-03-17T15:53:40.653Z,10.59
2019-03-17T15:56:30.410Z,10.62
2019-03-17T15:59:20.742Z,10.66
2019-03-17T16:02:10.648Z,10.70
2019-03-17T16:05:00.660Z,10.72
2019-03-17T16:07:50.971Z,10.76
2019-03-17T16:10:42.432Z,10.77
2019-03-17T16:13:32.681Z,10.79
2019-03-17T16:16:22.600Z,10.79
2019-03-17T16:19:12.460Z,10.83
2019-03-17T16:22:02.436Z,10.76
2019-03-17T16:24:52.478Z,10.80
2019-03-17T16:27:42.303Z,10.79
2019-03-17T16:30:32.364Z,10.82
2019-03-17T16:33:22.395Z,10.81
2019-03-17T16:36:12.654Z,10.81
2019-03-17T16:39:05.299Z,10.79
2019-03-17T16:41:55.227Z,10.74
2019-03-17T16:44:46.613Z,10.76
2019-03-17T16:47:36.793Z,10.78
2019-03-17T16:50:26.218Z,10.78
2019-03-17T16:53:15.643Z,10.74
2019-03-17T16:56:05.905Z,10.61
2019-03-17T16:58:56.053Z,10.65
2019-03-17T17:01:45.911Z,10.63
2019-03-17T17:04:35.570Z,10.61
2019-03-17T17:07:25.717Z,10.67
2019-03-17T17:10:17.144Z,10.72
2019-03-17T17:13:06.899Z,10.69
2019-03-17T17:15:57.008Z,10.68
2019-03-17T17:18:46.671Z,10.73
2019-03-17T17:21:36.535Z,10.75
2019-03-17T17:24:26.359Z,10.76
2019-03-17T17:27:16.237Z,10.80
2019-03-17T17:30:07.139Z,10.83
2019-03-17T17:32:57.546Z,10.81
2019-03-17T17:35:47.180Z,10.82
2019-03-17T17:38:37.388Z,10.85
2019-03-17T17:41:27.160Z,10.82
2019-03-17T17:44:16.901Z,10.83
2019-03-17T17:47:06.832Z,10.82
2019-03-17T17:49:56.608Z,10.82
2019-03-17T17:52:46.924Z,10.80
2019-03-17T17:55:37.256Z,10.81
2019-03-17T17:58:27.157Z,10.73
2019-03-17T18:01:17.057Z,10.78
2019-03-17T18:04:06.914Z,10.81
2019-03-17T18:06:56.421Z,10.82
2019-03-17T18:09:46.165Z,10.80
2019-03-17T18:12:36.158Z,10.79
2019-03-17T18:15:26.209Z,10.77
2019-03-17T18:18:16.160Z,10.73
2019-03-17T18:21:06.221Z,10.73
2019-03-17T18:23:56.096Z,10.71
2019-03-17T18:26:46.077Z,10.67
2019-03-17T18:29:35.592Z,10.64
2019-03-17T18:32:25.646Z,10.63
2019-03-17T18:35:15.938Z,10.65
2019-03-17T18:38:06.386Z,10.63
2019-03-17T18:40:56.410Z,10.59
2019-03-17T18:43:46.338Z,10.54
2019-03-17T18:46:35.925Z,10.52
2019-03-17T18:49:26.958Z,10.51
2019-03-17T18:52:16.653Z,10.49
2019-03-17T18:55:07.076Z,10.49
2019-03-17T18:57:57.260Z,10.50
2019-03-17T19:00:47.138Z,10.46
2019-03-17T19:03:36.908Z,10.39
2019-03-17T19:06:26.890Z,10.36
2019-03-17T19:09:16.218Z,10.34
2019-03-17T19:12:05.506Z,10.30
2019-03-17T19:14:54.430Z,10.25
2019-03-17T19:17:44.325Z,10.25
2019-03-17T19:20:34.456Z,10.22
2019-03-17T19:23:24.567Z,10.19
2019-03-17T19:26:14.432Z,10.16
2019-03-17T19:29:03.716Z,10.17
2019-03-17T19:31:53.339Z,10.17
2019-03-17T19:34:43.911Z,10.11
2019-03-17T19:37:33.621Z,10.03
2019-03-17T19:40:23.419Z,9.96
2019-03-17T19:43:13.624Z,10.00
2019-03-17T19:46:03.279Z,9.98
2019-03-17T19:48:53.077Z,9.96
2019-03-17T19:51:42.879Z,9.94
2019-03-17T19:54:33.149Z,9.87
2019-03-17T19:57:23.109Z,9.86
2019-03-17T20:00:15.198Z,9.85
2019-03-17T20:03:04.917Z,9.81
2019-03-17T20:06:02.028Z,9.81
2019-03-17T20:08:46.252Z,9.73
2019-03-17T20:11:36.306Z,9.71
2019-03-17T20:14:26.337Z,9.68
2019-03-17T20:17:16.237Z,9.63
2019-03-17T20:20:07.442Z,9.59
2019-03-17T20:22:58.044Z,9.61
2019-03-17T20:25:47.307Z,9.58
2019-03-17T20:28:37.059Z,9.57
2019-03-17T20:31:27.157Z,9.54
2019-03-17T20:34:16.853Z,9.52
2019-03-17T20:37:07.083Z,9.52
2019-03-17T20:39:57.184Z,9.51
2019-03-17T20:42:47.499Z,9.52
2019-03-17T20:45:36.838Z,9.52
2019-03-17T20:48:25.836Z,9.51
2019-03-17T20:51:15.230Z,9.51
2019-03-17T20:54:04.629Z,9.45
2019-03-17T20:56:54.391Z,9.48
2019-03-17T20:59:43.829Z,9.42
2019-03-17T21:02:34.121Z,9.42
2019-03-17T21:05:24.496Z,9.41
2019-03-17T21:08:14.278Z,9.32
2019-03-17T21:11:04.582Z,9.28
2019-03-17T21:13:58.678Z,9.23
2019-03-17T21:16:48.361Z,9.24
2019-03-17T21:19:38.282Z,9.16
2019-03-17T21:22:28.047Z,9.23
2019-03-17T21:25:17.894Z,9.21
2019-03-17T21:28:07.688Z,9.22
2019-03-17T21:30:57.993Z,9.21
2019-03-17T21:33:47.880Z,9.20
2019-03-17T21:36:37.645Z,9.17
2019-03-17T21:39:27.767Z,9.14
2019-03-17T21:42:17.656Z,9.11
2019-03-17T21:45:08.294Z,9.12
2019-03-17T21:47:57.956Z,9.14
2019-03-17T21:50:47.719Z,9.16
2019-03-17T21:53:37.920Z,9.16
2019-03-17T21:56:28.124Z,9.17
2019-03-17T21:59:18.069Z,9.20
2019-03-17T22:02:12.800Z,9.24
2019-03-17T22:04:59.095Z,9.28
2019-03-17T22:07:50.827Z,9.29
2019-03-17T22:10:40.228Z,9.29
2019-03-17T22:13:30.271Z,9.30
2019-03-17T22:16:21.259Z,9.30
2019-03-17T22:19:11.035Z,9.31
2019-03-17T22:22:00.919Z,9.26
2019-03-17T22:24:50.836Z,9.28
2019-03-17T22:27:39.930Z,9.30
2019-03-17T22:30:29.542Z,9.27
2019-03-17T22:33:19.369Z,9.23
2019-03-17T22:36:09.193Z,9.15
2019-03-17T22:38:59.378Z,9.18
2019-03-17T22:41:49.862Z,9.13
2019-03-17T22:44:40.074Z,9.17
2019-03-17T22:47:29.998Z,9.12
2019-03-17T22:50:19.831Z,9.16
2019-03-17T22:53:09.556Z,9.17
2019-03-17T22:55:59.377Z,9.20
2019-03-17T22:58:49.272Z,9.14
2019-03-17T23:01:39.389Z,9.17
2019-03-17T23:04:29.500Z,9.16
2019-03-17T23:07:19.241Z,9.10
2019-03-17T23:10:10.219Z,9.10
2019-03-17T23:13:00.255Z,9.11
2019-03-17T23:15:50.506Z,9.16
2019-03-17T23:18:40.411Z,9.19
2019-03-17T23:21:30.149Z,9.15
2019-03-17T23:24:20.007Z,9.13
2019-03-17T23:27:10.479Z,9.06
2019-03-17T23:30:00.436Z,9.02
2019-03-17T23:32:50.707Z,9.03
2019-03-17T23:35:40.815Z,9.04
2019-03-17T23:38:30.349Z,9.03
2019-03-17T23:41:20.156Z,9.01
2019-03-17T23:44:10.207Z,8.99
2019-03-17T23:47:00.172Z,9.00
2019-03-17T23:49:50.307Z,8.99
2019-03-17T23:52:40.223Z,9.02
2019-03-17T23:55:30.106Z,8.98
2019-03-17T23:58:20.288Z,8.95
